createdAt,value
2019-01-27T00:02:18.342Z,97829.22
2019-01-27T00:04:46.118Z,97819.25
2019-01-27T00:07:13.910Z,97814.04
2019-01-27T00:09:41.696Z,97805.22
2019-01-27T00:12:09.498Z,97804.25
2019-01-27T00:14:37.306Z,97804.63
2019-01-27T00:17:05.223Z,97798.77
2019-01-27T00:19:33.054Z,97786.36
2019-01-27T00:22:00.859Z,97776.56
2019-01-27T00:24:28.869Z,97775.55
2019-01-27T00:26:56.672Z,97771.14
2019-01-27T00:29:24.561Z,97761.30
2019-01-27T00:31:52.566Z,97756.91
2019-01-27T00:34:20.397Z,97758.03
2019-01-27T00:36:48.193Z,97752.48
2019-01-27T00:39:16.261Z,97750.05
2019-01-27T00:41:44.061Z,97748.43
2019-01-27T00:44:11.897Z,97737.17
2019-01-27T00:46:39.629Z,97732.23
2019-01-27T00:49:12.562Z,97724.72
2019-01-27T00:51:40.343Z,97715.58
2019-01-27T00:54:08.194Z,97714.44
2019-01-27T00:56:35.979Z,97709.69
2019-01-27T00:59:04.102Z,97699.22
2019-01-27T01:01:32.936Z,97705.04
2019-01-27T01:04:00.812Z,97697.56
2019-01-27T01:06:28.609Z,97691.81
2019-01-27T01:08:56.440Z,97677.81
2019-01-27T01:11:24.198Z,97676.48
2019-01-27T01:13:52.068Z,97673.84
2019-01-27T01:16:19.836Z,97673.02
2019-01-27T01:18:47.844Z,97671.70
2019-01-27T01:21:15.910Z,97659.83
2019-01-27T01:23:45.510Z,97668.00
2019-01-27T01:26:13.351Z,97665.85
2019-01-27T01:28:41.508Z,97656.73
2019-01-27T01:31:09.325Z,97647.81
2019-01-27T01:33:37.049Z,97648.93
2019-01-27T01:36:05.633Z,97640.64
2019-01-27T01:38:33.409Z,97642.38
2019-01-27T01:41:01.227Z,97633.19
2019-01-27T01:43:29.071Z,97629.45
2019-01-27T01:46:16.324Z,97620.66
2019-01-27T01:48:44.465Z,97616.29
2019-01-27T01:51:12.235Z,97611.36
2019-01-27T01:53:40.424Z,97606.27
2019-01-27T01:56:08.332Z,97599.13
2019-01-27T01:58:36.096Z,97587.70
2019-01-27T02:01:04.233Z,97578.76
2019-01-27T02:03:32.058Z,97576.92
2019-01-27T02:05:59.917Z,97572.12
2019-01-27T02:08:28.018Z,97569.81
2019-01-27T02:10:55.871Z,97560.25
2019-01-27T02:13:23.657Z,97554.13
2019-01-27T02:16:08.722Z,97545.80
2019-01-27T02:18:38.171Z,97532.64
2019-01-27T02:21:07.118Z,97528.42
2019-01-27T02:23:35.047Z,97521.66
2019-01-27T02:26:03.901Z,97515.28
2019-01-27T02:28:31.690Z,97516.34
2019-01-27T02:30:59.465Z,97511.47
2019-01-27T02:33:27.261Z,97499.25
2019-01-27T02:35:55.073Z,97498.38
2019-01-27T02:38:42.402Z,97491.50
2019-01-27T02:41:10.186Z,97482.08
2019-01-27T02:43:38.017Z,97478.69
2019-01-27T02:46:06.077Z,97472.63
2019-01-27T02:48:34.052Z,97469.18
2019-01-27T02:51:01.818Z,97462.13
2019-01-27T02:53:29.566Z,97455.94
2019-01-27T02:55:57.360Z,97450.14
2019-01-27T02:58:33.714Z,97444.58
2019-01-27T03:01:01.524Z,97435.31
2019-01-27T03:03:29.283Z,97433.33
2019-01-27T03:06:19.649Z,97428.12
2019-01-27T03:08:51.721Z,97425.52
2019-01-27T03:11:20.021Z,97417.71
2019-01-27T03:13:48.071Z,97413.73
2019-01-27T03:16:15.886Z,97416.27
2019-01-27T03:18:43.601Z,97406.93
2019-01-27T03:21:11.448Z,97405.28
2019-01-27T03:23:39.219Z,97400.80
2019-01-27T03:26:26.455Z,97397.19
2019-01-27T03:28:54.442Z,97396.63
2019-01-27T03:31:22.195Z,97388.13
2019-01-27T03:33:49.965Z,97379.77
2019-01-27T03:36:17.734Z,97378.17
2019-01-27T03:38:45.584Z,97370.52
2019-01-27T03:41:13.333Z,97368.22
2019-01-27T03:43:43.113Z,97363.82
2019-01-27T03:46:10.940Z,97355.64
2019-01-27T03:48:44.009Z,97351.05
2019-01-27T03:51:12.124Z,97343.55
2019-01-27T03:53:39.851Z,97329.69
2019-01-27T03:56:07.654Z,97321.66
2019-01-27T03:58:35.429Z,97328.38
2019-01-27T04:01:04.153Z,97331.29
2019-01-27T04:03:31.920Z,97319.52
2019-01-27T04:05:59.752Z,97313.98
2019-01-27T04:08:27.668Z,97296.09
2019-01-27T04:10:55.445Z,97298.56
2019-01-27T04:13:23.262Z,97289.89
2019-01-27T04:15:51.060Z,97287.06
2019-01-27T04:18:18.851Z,97285.11
2019-01-27T04:21:06.098Z,97164.06
2019-01-27T04:23:33.823Z,97277.20
2019-01-27T04:26:01.606Z,97273.06
2019-01-27T04:28:54.146Z,97273.34
2019-01-27T04:31:21.898Z,97266.76
2019-01-27T04:33:49.658Z,97263.48
2019-01-27T04:36:17.464Z,97257.78
2019-01-27T04:38:45.347Z,97248.34
2019-01-27T04:41:13.137Z,97240.30
2019-01-27T04:43:40.931Z,97227.95
2019-01-27T04:46:28.158Z,97222.41
2019-01-27T04:48:56.084Z,97221.77
2019-01-27T04:51:23.857Z,97223.55
2019-01-27T04:53:51.668Z,97217.92
2019-01-27T04:56:19.463Z,97220.09
2019-01-27T04:58:47.743Z,97218.06
2019-01-27T05:01:15.512Z,97216.54
2019-01-27T05:04:02.894Z,97211.55
2019-01-27T05:06:30.698Z,97204.70
2019-01-27T05:09:14.922Z,97210.08
2019-01-27T05:11:42.686Z,97204.09
2019-01-27T05:14:29.912Z,97199.53
2019-01-27T05:16:57.727Z,97197.92
2019-01-27T05:19:25.550Z,97199.20
2019-01-27T05:21:53.356Z,97194.94
2019-01-27T05:24:21.135Z,97188.87
2019-01-27T05:26:48.895Z,97187.95
2019-01-27T05:29:17.131Z,97189.94
2019-01-27T05:31:44.893Z,97189.66
2019-01-27T05:34:12.709Z,97181.84
2019-01-27T05:36:41.546Z,97179.13
2019-01-27T05:39:09.863Z,97169.03
2019-01-27T05:41:37.632Z,97172.80
2019-01-27T05:44:05.593Z,97175.95
2019-01-27T05:46:33.375Z,97167.83
2019-01-27T05:49:01.160Z,97166.77
2019-01-27T05:51:28.968Z,97172.25
2019-01-27T05:53:56.768Z,97162.31
2019-01-27T05:56:24.601Z,97155.77
2019-01-27T05:58:52.376Z,97152.19
2019-01-27T06:01:20.183Z,97150.88
2019-01-27T06:03:47.998Z,97147.19
2019-01-27T06:06:15.794Z,97154.57
2019-01-27T06:08:48.717Z,97150.31
2019-01-27T06:11:16.478Z,97150.50
2019-01-27T06:13:44.304Z,97150.66
2019-01-27T06:16:12.060Z,97146.05
2019-01-27T06:18:39.847Z,97145.69
2019-01-27T06:21:07.695Z,97135.78
2019-01-27T06:23:35.528Z,97129.97
2019-01-27T06:26:03.339Z,97122.31
2019-01-27T06:28:36.117Z,97127.25
2019-01-27T06:31:04.395Z,97114.59
2019-01-27T06:33:48.930Z,97119.64
2019-01-27T06:36:16.689Z,97119.84
2019-01-27T06:39:06.920Z,97113.48
2019-01-27T06:41:34.646Z,97112.97
2019-01-27T06:44:02.484Z,97101.89
2019-01-27T06:46:30.276Z,97108.89
2019-01-27T06:48:58.024Z,97112.59
2019-01-27T06:51:25.803Z,97106.50
2019-01-27T06:53:53.535Z,97106.67
2019-01-27T06:56:21.328Z,97103.79
2019-01-27T06:59:09.209Z,97100.23
2019-01-27T07:02:11.980Z,97102.19
2019-01-27T07:05:16.995Z,97095.66
2019-01-27T07:07:57.601Z,97088.04
2019-01-27T07:10:43.496Z,97091.19
2019-01-27T07:13:26.704Z,97087.38
2019-01-27T07:16:09.184Z,97084.67
2019-01-27T07:18:51.905Z,97078.94
2019-01-27T07:21:28.277Z,97080.33
2019-01-27T07:24:27.977Z,97073.94
2019-01-27T07:27:18.155Z,97067.91
2019-01-27T07:30:04.206Z,97061.91
2019-01-27T07:32:42.535Z,97059.95
2019-01-27T07:35:38.830Z,97067.39
2019-01-27T07:38:27.383Z,97069.63
2019-01-27T07:41:40.068Z,97062.04
2019-01-27T07:44:27.462Z,97059.27
2019-01-27T07:47:12.906Z,97062.93
2019-01-27T07:49:51.606Z,97058.06
2019-01-27T07:52:31.595Z,97048.45
2019-01-27T07:55:31.085Z,97050.63
2019-01-27T07:58:17.010Z,97053.23
2019-01-27T08:01:04.440Z,97060.02
2019-01-27T08:03:54.862Z,97044.37
2019-01-27T08:06:34.019Z,97037.09
2019-01-27T08:09:29.449Z,97043.33
2019-01-27T08:12:15.469Z,97027.89
2019-01-27T08:14:58.351Z,97030.70
2019-01-27T08:17:48.545Z,97034.03
2019-01-27T08:20:23.496Z,97035.37
2019-01-27T08:23:14.082Z,97030.22
2019-01-27T08:25:47.057Z,97027.06
2019-01-27T08:28:31.216Z,97019.36
2019-01-27T08:31:13.864Z,97016.88
2019-01-27T08:34:13.301Z,97022.88
2019-01-27T08:37:06.519Z,97020.34
2019-01-27T08:39:39.997Z,97022.16
2019-01-27T08:42:27.360Z,97010.58
2019-01-27T08:45:17.788Z,97008.23
2019-01-27T08:48:00.646Z,97006.37
2019-01-27T08:50:28.533Z,97001.84
2019-01-27T08:52:56.376Z,96999.97
2019-01-27T08:55:24.211Z,96995.48
2019-01-27T08:57:57.248Z,96996.08
2019-01-27T09:00:31.926Z,96991.63
2019-01-27T09:03:08.911Z,96988.22
2019-01-27T09:05:41.102Z,96983.42
2019-01-27T09:08:20.049Z,96980.82
2019-01-27T09:11:06.393Z,96979.60
2019-01-27T09:13:50.403Z,96982.14
2019-01-27T09:16:47.668Z,96976.78
2019-01-27T09:19:56.204Z,96966.63
2019-01-27T09:22:46.844Z,96967.80
2019-01-27T09:25:24.844Z,96964.19
2019-01-27T09:28:29.696Z,96958.83
2019-01-27T09:31:16.134Z,96958.92
2019-01-27T09:34:02.400Z,96944.92
2019-01-27T09:36:58.519Z,96934.95
2019-01-27T09:39:46.106Z,96941.95
2019-01-27T09:42:42.573Z,96940.51
2019-01-27T09:45:57.606Z,96929.84
2019-01-27T09:48:33.551Z,96929.98
2019-01-27T09:51:23.979Z,96921.00
2019-01-27T09:54:01.724Z,96924.50
2019-01-27T09:56:46.782Z,96916.69
2019-01-27T09:59:36.465Z,96918.08
2019-01-27T10:02:12.722Z,96913.94
2019-01-27T10:04:54.946Z,96916.63
2019-01-27T10:07:41.142Z,96915.30
2019-01-27T10:10:25.687Z,96912.53
2019-01-27T10:13:18.924Z,96919.83
2019-01-27T10:16:15.607Z,96915.73
2019-01-27T10:19:02.520Z,96914.33
2019-01-27T10:21:48.745Z,96914.45
2019-01-27T10:24:35.019Z,96917.14
2019-01-27T10:27:23.135Z,96912.33
2019-01-27T10:30:10.540Z,96907.13
2019-01-27T10:32:56.498Z,96904.41
2019-01-27T10:35:35.103Z,96900.75
2019-01-27T10:38:07.843Z,96901.06
2019-01-27T10:40:39.833Z,96893.55
2019-01-27T10:43:27.782Z,96892.52
2019-01-27T10:46:11.293Z,96881.12
2019-01-27T10:49:12.034Z,96877.66
2019-01-27T10:52:08.215Z,96872.30
2019-01-27T10:54:48.318Z,96864.92
2019-01-27T10:57:54.024Z,96867.52
2019-01-27T11:00:40.588Z,96858.26
2019-01-27T11:03:22.465Z,96853.80
2019-01-27T11:06:09.908Z,96857.23
2019-01-27T11:09:05.432Z,96854.01
2019-01-27T11:11:43.720Z,96849.44
2019-01-27T11:14:38.336Z,96842.39
2019-01-27T11:17:17.746Z,96840.37
2019-01-27T11:19:50.047Z,96825.23
2019-01-27T11:22:33.884Z,96817.55
2019-01-27T11:25:19.577Z,96816.52
2019-01-27T11:27:53.549Z,96814.11
2019-01-27T11:30:41.409Z,96797.33
2019-01-27T11:33:29.003Z,96796.95
2019-01-27T11:36:15.045Z,96792.67
2019-01-27T11:38:59.169Z,96792.52
2019-01-27T11:41:35.331Z,96793.67
2019-01-27T11:44:12.702Z,96782.95
2019-01-27T11:46:58.378Z,96776.55
2019-01-27T11:49:45.829Z,96772.28
2019-01-27T11:52:24.061Z,96768.20
2019-01-27T11:54:51.877Z,96766.98
2019-01-27T11:57:19.703Z,96760.92
2019-01-27T11:59:47.489Z,96773.36
2019-01-27T12:02:15.352Z,96774.20
2019-01-27T12:04:43.176Z,96762.84
2019-01-27T12:07:10.981Z,96764.42
2019-01-27T12:09:38.845Z,96758.45
2019-01-27T12:12:06.609Z,96756.51
2019-01-27T12:14:34.406Z,96748.36
2019-01-27T12:17:02.177Z,96745.84
2019-01-27T12:20:00.428Z,96744.34
2019-01-27T12:22:28.197Z,96752.91
2019-01-27T12:24:56.006Z,96743.02
2019-01-27T12:27:24.165Z,96732.27
2019-01-27T12:29:52.235Z,96730.09
2019-01-27T12:32:40.818Z,96733.83
2019-01-27T12:35:09.565Z,96743.02
2019-01-27T12:37:43.738Z,96735.28
2019-01-27T12:40:15.618Z,96728.45
2019-01-27T12:42:43.565Z,96736.54
2019-01-27T12:45:13.540Z,96730.27
2019-01-27T12:47:41.861Z,96730.80
2019-01-27T12:50:12.730Z,96738.36
2019-01-27T12:52:40.694Z,96731.53
2019-01-27T12:55:10.420Z,96732.89
2019-01-27T12:57:57.660Z,96723.39
2019-01-27T13:00:35.865Z,96714.69
2019-01-27T13:03:04.050Z,96714.29
2019-01-27T13:05:31.846Z,96711.84
2019-01-27T13:08:09.875Z,96702.83
2019-01-27T13:10:38.102Z,96700.36
2019-01-27T13:13:05.883Z,96690.50
2019-01-27T13:15:33.739Z,96691.95
2019-01-27T13:18:01.529Z,96684.59
2019-01-27T13:20:29.341Z,96679.22
2019-01-27T13:22:57.126Z,96680.92
2019-01-27T13:25:25.030Z,96672.38
2019-01-27T13:27:52.844Z,96663.73
2019-01-27T13:30:22.012Z,96662.39
2019-01-27T13:32:49.952Z,96653.79
2019-01-27T13:35:18.551Z,96658.70
2019-01-27T13:37:46.346Z,96652.52
2019-01-27T13:40:17.291Z,96642.06
2019-01-27T13:42:45.202Z,96638.42
2019-01-27T13:45:16.694Z,96648.30
2019-01-27T13:47:44.486Z,96646.45
2019-01-27T13:50:13.125Z,96655.87
2019-01-27T13:52:41.080Z,96652.42
2019-01-27T13:55:13.885Z,96664.19
2019-01-27T13:57:41.855Z,96651.08
2019-01-27T14:00:19.304Z,96658.45
2019-01-27T14:02:47.146Z,96652.30
2019-01-27T14:05:14.902Z,96643.59
2019-01-27T14:07:47.948Z,96649.24
2019-01-27T14:10:19.387Z,96650.44
2019-01-27T14:12:47.259Z,96647.30
2019-01-27T14:15:20.472Z,96648.00
2019-01-27T14:17:48.481Z,96645.24
2019-01-27T14:20:17.374Z,96647.43
2019-01-27T14:22:45.478Z,96652.34
2019-01-27T14:25:15.849Z,96644.82
2019-01-27T14:28:08.304Z,96649.56
2019-01-27T14:30:39.873Z,96648.39
2019-01-27T14:33:07.686Z,96649.52
2019-01-27T14:35:35.504Z,96654.00
2019-01-27T14:38:08.453Z,96651.16
2019-01-27T14:40:36.291Z,96657.64
2019-01-27T14:43:04.485Z,96656.80
2019-01-27T14:45:33.086Z,96652.38
2019-01-27T14:48:01.073Z,96650.29
2019-01-27T14:50:38.203Z,96653.83
2019-01-27T14:53:07.777Z,96652.22
2019-01-27T14:55:35.722Z,96656.19
2019-01-27T14:58:04.340Z,96654.03
2019-01-27T15:00:36.672Z,96649.90
2019-01-27T15:03:06.675Z,96649.89
2019-01-27T15:05:34.568Z,96651.23
2019-01-27T15:08:02.377Z,96644.48
2019-01-27T15:10:30.784Z,96640.80
2019-01-27T15:12:58.954Z,96643.74
2019-01-27T15:15:26.914Z,96649.75
2019-01-27T15:17:54.885Z,96644.09
2019-01-27T15:20:29.675Z,96639.78
2019-01-27T15:22:57.844Z,96634.61
2019-01-27T15:25:25.664Z,96625.36
2019-01-27T15:27:53.440Z,96624.34
2019-01-27T15:30:24.967Z,96628.94
2019-01-27T15:32:53.004Z,96627.68
2019-01-27T15:35:21.032Z,96638.46
2019-01-27T15:37:48.905Z,96636.63
2019-01-27T15:40:16.987Z,96637.63
2019-01-27T15:42:44.890Z,96640.78
2019-01-27T15:45:17.273Z,96640.73
2019-01-27T15:47:45.121Z,96636.25
2019-01-27T15:50:16.560Z,96644.70
2019-01-27T15:52:44.504Z,96646.45
2019-01-27T15:55:14.502Z,96643.96
2019-01-27T15:57:42.566Z,96642.48
2019-01-27T16:01:03.579Z,96642.89
2019-01-27T16:03:31.583Z,96652.48
2019-01-27T16:05:59.419Z,96644.28
2019-01-27T16:08:27.273Z,96642.20
2019-01-27T16:10:55.083Z,96646.00
2019-01-27T16:13:22.882Z,96648.37
2019-01-27T16:15:50.739Z,96642.83
2019-01-27T16:18:18.532Z,96639.05
2019-01-27T16:20:46.403Z,96636.77
2019-01-27T16:23:39.727Z,96633.91
2019-01-27T16:26:07.562Z,96625.55
2019-01-27T16:28:35.374Z,96628.20
2019-01-27T16:31:22.911Z,96634.49
2019-01-27T16:34:01.158Z,96632.73
2019-01-27T16:36:28.893Z,96635.97
2019-01-27T16:38:56.792Z,96636.05
2019-01-27T16:41:24.614Z,96637.48
2019-01-27T16:43:52.891Z,96639.55
2019-01-27T16:46:20.778Z,96633.55
2019-01-27T16:48:49.880Z,96629.14
2019-01-27T16:51:20.018Z,96623.92
2019-01-27T16:53:47.875Z,96593.11
2019-01-27T16:56:15.701Z,96629.47
2019-01-27T16:58:43.556Z,96625.22
2019-01-27T17:01:11.864Z,96629.27
2019-01-27T17:03:39.720Z,96626.00
2019-01-27T17:06:07.631Z,96629.02
2019-01-27T17:08:35.392Z,96627.34
2019-01-27T17:11:03.623Z,96618.52
2019-01-27T17:13:31.394Z,96620.93
2019-01-27T17:15:59.202Z,96614.19
2019-01-27T17:18:27.068Z,96613.78
2019-01-27T17:20:54.856Z,96615.55
2019-01-27T17:23:22.595Z,96614.94
2019-01-27T17:25:53.779Z,96616.69
2019-01-27T17:28:21.805Z,96618.53
2019-01-27T17:30:49.658Z,96614.61
2019-01-27T17:33:17.562Z,96612.96
2019-01-27T17:35:45.386Z,96616.68
2019-01-27T17:38:13.249Z,96616.20
2019-01-27T17:40:41.918Z,96617.53
2019-01-27T17:43:09.711Z,96613.70
2019-01-27T17:45:37.502Z,96613.38
2019-01-27T17:48:06.201Z,96610.03
2019-01-27T17:50:34.028Z,96608.24
2019-01-27T17:53:02.368Z,96605.88
2019-01-27T17:55:43.062Z,96611.63
2019-01-27T17:58:36.920Z,96610.26
2019-01-27T18:01:24.760Z,96605.00
2019-01-27T18:04:02.054Z,96605.80
2019-01-27T18:06:46.550Z,96600.69
2019-01-27T18:10:11.415Z,96599.92
2019-01-27T18:12:56.616Z,96600.66
2019-01-27T18:15:24.500Z,96599.63
2019-01-27T18:17:52.637Z,96599.52
2019-01-27T18:20:20.431Z,96599.51
2019-01-27T18:22:48.272Z,96601.55
2019-01-27T18:25:16.124Z,96604.56
2019-01-27T18:27:44.362Z,96605.55
2019-01-27T18:30:18.571Z,96606.27
2019-01-27T18:32:47.427Z,96606.20
2019-01-27T18:35:17.253Z,96606.94
2019-01-27T18:37:50.100Z,96608.81
2019-01-27T18:40:22.501Z,96608.20
2019-01-27T18:43:10.744Z,96602.73
2019-01-27T18:45:44.742Z,96600.20
2019-01-27T18:48:13.380Z,96607.92
2019-01-27T18:50:41.163Z,96607.31
2019-01-27T18:53:18.701Z,96608.37
2019-01-27T18:56:10.364Z,96609.31
2019-01-27T18:59:04.840Z,96610.41
2019-01-27T19:01:48.913Z,96608.61
2019-01-27T19:04:35.208Z,96613.83
2019-01-27T19:07:37.497Z,96617.70
2019-01-27T19:10:44.625Z,96617.39
2019-01-27T19:13:26.894Z,96616.28
2019-01-27T19:16:10.911Z,96616.78
2019-01-27T19:18:49.262Z,96619.14
2019-01-27T19:21:36.945Z,96618.97
2019-01-27T19:24:41.872Z,96619.75
2019-01-27T19:27:30.286Z,96621.99
2019-01-27T19:30:30.106Z,96623.61
2019-01-27T19:33:09.313Z,96624.55
2019-01-27T19:36:08.851Z,96625.73
2019-01-27T19:38:59.196Z,96625.09
2019-01-27T19:41:41.696Z,96625.95
2019-01-27T19:44:47.492Z,96639.01
2019-01-27T19:47:40.673Z,96645.24
2019-01-27T19:50:27.931Z,96643.49
2019-01-27T19:53:21.644Z,96654.95
2019-01-27T19:56:17.627Z,96660.30
2019-01-27T19:59:13.904Z,96665.97
2019-01-27T20:02:07.153Z,96672.50
2019-01-27T20:04:53.479Z,96683.47
2019-01-27T20:07:35.933Z,96684.80
2019-01-27T20:10:32.044Z,96693.53
2019-01-27T20:13:22.379Z,96698.52
2019-01-27T20:16:08.493Z,96700.50
2019-01-27T20:18:46.350Z,96702.52
2019-01-27T20:21:33.766Z,96704.02
2019-01-27T20:24:17.662Z,96706.52
2019-01-27T20:27:11.364Z,96552.08
2019-01-27T20:30:04.091Z,96722.78
2019-01-27T20:32:50.174Z,96717.61
2019-01-27T20:35:37.621Z,96725.83
2019-01-27T20:38:15.235Z,96725.91
2019-01-27T20:41:05.727Z,96730.28
2019-01-27T20:44:11.299Z,96727.09
2019-01-27T20:46:57.448Z,96740.03
2019-01-27T20:49:48.000Z,96744.86
2019-01-27T20:52:21.879Z,96752.91
2019-01-27T20:55:15.444Z,96760.08
2019-01-27T20:58:11.914Z,96755.30
2019-01-27T21:00:55.014Z,96758.45
2019-01-27T21:03:40.702Z,96769.59
2019-01-27T21:06:31.295Z,96776.47
2019-01-27T21:09:09.786Z,96780.12
2019-01-27T21:12:06.505Z,96801.06
2019-01-27T21:15:06.192Z,96803.58
2019-01-27T21:17:48.981Z,96814.55
2019-01-27T21:20:36.268Z,96818.48
2019-01-27T21:23:07.209Z,96822.91
2019-01-27T21:25:35.047Z,96832.33
2019-01-27T21:28:03.012Z,96838.22
2019-01-27T21:30:30.893Z,96843.00
2019-01-27T21:32:58.725Z,96850.98
2019-01-27T21:35:26.554Z,96859.41
2019-01-27T21:37:54.438Z,96864.68
2019-01-27T21:40:22.245Z,96865.59
2019-01-27T21:42:50.089Z,96869.26
2019-01-27T21:45:17.986Z,96870.02
2019-01-27T21:47:45.870Z,96876.48
2019-01-27T21:50:16.667Z,96880.30
2019-01-27T21:52:44.527Z,96887.02
2019-01-27T21:55:13.004Z,96885.80
2019-01-27T21:57:40.876Z,96901.78
2019-01-27T22:00:13.140Z,96895.95
2019-01-27T22:02:40.983Z,96906.13
2019-01-27T22:05:08.882Z,96909.25
2019-01-27T22:07:36.710Z,96904.18
2019-01-27T22:10:07.198Z,96914.91
2019-01-27T22:12:34.996Z,96922.13
2019-01-27T22:15:03.342Z,96927.58
2019-01-27T22:17:31.135Z,96924.56
2019-01-27T22:19:58.942Z,96936.34
2019-01-27T22:22:26.727Z,96944.91
2019-01-27T22:24:54.491Z,96945.50
2019-01-27T22:27:22.313Z,96947.03
2019-01-27T22:29:50.141Z,96960.07
2019-01-27T22:32:17.942Z,96960.74
2019-01-27T22:34:45.739Z,96963.75
2019-01-27T22:37:13.578Z,96966.42
2019-01-27T22:39:41.475Z,96973.08
2019-01-27T22:42:09.262Z,96979.92
2019-01-27T22:44:37.174Z,96985.14
2019-01-27T22:47:04.972Z,96996.55
2019-01-27T22:49:32.804Z,97002.05
2019-01-27T22:52:00.603Z,97005.98
2019-01-27T22:54:28.377Z,97011.45
2019-01-27T22:56:56.135Z,97012.06
2019-01-27T22:59:39.252Z,97019.03
2019-01-27T23:02:07.117Z,97021.78
2019-01-27T23:04:34.985Z,97018.84
2019-01-27T23:07:03.262Z,97024.52
2019-01-27T23:09:31.517Z,97029.37
2019-01-27T23:11:59.280Z,97039.10
2019-01-27T23:14:27.153Z,97036.23
2019-01-27T23:16:54.981Z,97039.45
2019-01-27T23:19:22.891Z,97053.14
2019-01-27T23:21:50.664Z,97056.20
2019-01-27T23:24:18.484Z,97063.55
2019-01-27T23:26:46.280Z,97073.34
2019-01-27T23:29:59.276Z,97074.81
2019-01-27T23:32:27.090Z,97081.83
2019-01-27T23:34:54.883Z,97091.90
2019-01-27T23:37:22.678Z,97094.02
2019-01-27T23:39:50.484Z,97101.97
2019-01-27T23:42:18.340Z,97108.92
2019-01-27T23:44:46.210Z,97118.63
2019-01-27T23:47:13.961Z,97115.05
2019-01-27T23:49:41.860Z,97112.31
2019-01-27T23:52:09.672Z,97114.45
2019-01-27T23:54:37.527Z,97116.62
2019-01-27T23:57:24.748Z,97124.67
2019-01-27T23:59:52.597Z,97130.78
